createdAt,value
2023-04-28T00:00:13.940Z,11.11
2023-04-28T00:01:13.935Z,11.13
2023-04-28T00:02:13.933Z,11.08
2023-04-28T00:03:14.010Z,11.05
2023-04-28T00:04:14.202Z,11.06
2023-04-28T00:05:13.939Z,11.08
2023-04-28T00:06:13.891Z,11.03
2023-04-28T00:07:13.876Z,11.05
2023-04-28T00:08:13.828Z,11.03
2023-04-28T00:09:13.855Z,11.01
2023-04-28T00:10:13.843Z,10.98
2023-04-28T00:11:13.827Z,10.99
2023-04-28T00:12:13.803Z,10.94
2023-04-28T00:13:13.819Z,10.91
2023-04-28T00:14:13.850Z,10.87
2023-04-28T00:15:13.789Z,10.84
2023-04-28T00:16:13.823Z,10.84
2023-04-28T00:17:13.876Z,10.83
2023-04-28T00:18:13.756Z,10.84
2023-04-28T00:19:13.739Z,10.83
2023-04-28T00:20:13.700Z,10.76
2023-04-28T00:21:13.726Z,10.72
2023-04-28T00:22:13.729Z,10.70
2023-04-28T00:23:13.717Z,10.69
2023-04-28T00:24:13.788Z,10.65
2023-04-28T00:25:13.700Z,10.62
2023-04-28T00:26:13.660Z,10.57
2023-04-28T00:27:13.686Z,10.54
2023-04-28T00:28:18.382Z,10.39
2023-04-28T00:29:13.670Z,10.32
2023-04-28T00:30:13.622Z,10.24
2023-04-28T00:31:13.661Z,10.18
2023-04-28T00:32:13.655Z,10.16
2023-04-28T00:33:13.609Z,10.13
2023-04-28T00:34:13.753Z,10.10
2023-04-28T00:35:13.592Z,10.06
2023-04-28T00:36:13.542Z,10.01
2023-04-28T00:37:13.548Z,9.99
2023-04-28T00:38:13.558Z,9.99
2023-04-28T00:39:13.539Z,9.96
2023-04-28T00:40:13.538Z,9.95
2023-04-28T00:41:13.507Z,9.95
2023-04-28T00:42:13.499Z,9.95
2023-04-28T00:43:13.478Z,9.92
2023-04-28T00:44:13.558Z,9.92
2023-04-28T00:45:13.507Z,9.91
2023-04-28T00:46:13.633Z,9.92
2023-04-28T00:47:13.445Z,9.95
2023-04-28T00:48:13.403Z,9.96
2023-04-28T00:49:13.490Z,9.99
2023-04-28T00:50:13.408Z,10.02
2023-04-28T00:51:13.398Z,10.01
2023-04-28T00:52:13.387Z,10.06
2023-04-28T00:53:13.383Z,10.07
2023-04-28T00:54:13.441Z,10.07
2023-04-28T00:55:13.383Z,10.07
2023-04-28T00:56:13.325Z,10.09
2023-04-28T00:57:13.345Z,10.06
2023-04-28T00:58:13.338Z,10.06
2023-04-28T00:59:13.310Z,10.06
2023-04-28T01:00:13.317Z,10.04
2023-04-28T01:01:13.358Z,10.04
2023-04-28T01:02:13.350Z,10.01
2023-04-28T01:03:13.380Z,10.01
2023-04-28T01:04:13.496Z,9.99
2023-04-28T01:05:13.250Z,9.93
2023-04-28T01:06:13.254Z,9.89
2023-04-28T01:07:13.228Z,9.88
2023-04-28T01:08:13.194Z,9.88
2023-04-28T01:09:13.209Z,9.88
2023-04-28T01:10:13.244Z,9.88
2023-04-28T01:11:13.196Z,9.91
2023-04-28T01:12:13.163Z,9.88
2023-04-28T01:13:13.156Z,9.89
2023-04-28T01:14:13.196Z,9.86
2023-04-28T01:15:13.141Z,9.83
2023-04-28T01:16:13.162Z,9.85
2023-04-28T01:17:13.113Z,9.85
2023-04-28T01:18:13.118Z,9.85
2023-04-28T01:19:13.100Z,9.89
2023-04-28T01:20:13.110Z,9.92
2023-04-28T01:21:13.106Z,9.93
2023-04-28T01:22:13.068Z,9.96
2023-04-28T01:23:13.128Z,9.98
2023-04-28T01:24:13.027Z,9.98
2023-04-28T01:25:13.039Z,9.96
2023-04-28T01:26:12.994Z,9.96
2023-04-28T01:27:13.033Z,9.98
2023-04-28T01:28:13.023Z,9.99
2023-04-28T01:29:13.004Z,9.99
2023-04-28T01:30:12.989Z,9.99
2023-04-28T01:31:13.056Z,9.99
2023-04-28T01:32:12.924Z,9.99
2023-04-28T01:33:12.934Z,9.96
2023-04-28T01:34:13.001Z,9.98
2023-04-28T01:35:12.914Z,10.01
2023-04-28T01:36:12.881Z,9.98
2023-04-28T01:37:12.909Z,9.99
2023-04-28T01:38:12.879Z,10.01
2023-04-28T01:39:12.900Z,9.99
2023-04-28T01:40:12.873Z,10.02
2023-04-28T01:41:12.863Z,10.04
2023-04-28T01:42:12.857Z,10.06
2023-04-28T01:43:12.834Z,10.07
2023-04-28T01:44:12.801Z,10.09
2023-04-28T01:45:12.836Z,10.07
2023-04-28T01:46:12.833Z,10.09
2023-04-28T01:47:12.779Z,10.10
2023-04-28T01:48:12.795Z,10.10
2023-04-28T01:49:12.788Z,10.11
2023-04-28T01:50:12.750Z,10.13
2023-04-28T01:51:12.746Z,10.10
2023-04-28T01:52:12.766Z,10.06
2023-04-28T01:53:12.729Z,10.01
2023-04-28T01:54:12.704Z,9.98
2023-04-28T01:55:12.745Z,9.96
2023-04-28T01:56:12.678Z,9.91
2023-04-28T01:57:12.704Z,9.89
2023-04-28T01:58:12.675Z,9.89
2023-04-28T01:59:12.680Z,9.86
2023-04-28T02:00:12.735Z,9.86
2023-04-28T02:01:12.733Z,9.85
2023-04-28T02:02:12.641Z,9.83
2023-04-28T02:03:12.790Z,9.83
2023-04-28T02:04:12.710Z,9.83
2023-04-28T02:05:12.621Z,9.83
2023-04-28T02:06:12.592Z,9.80
2023-04-28T02:07:12.658Z,9.81
2023-04-28T02:08:12.561Z,9.80
2023-04-28T02:09:12.606Z,9.80
2023-04-28T02:10:12.641Z,9.80
2023-04-28T02:11:12.595Z,9.77
2023-04-28T02:12:12.681Z,9.74
2023-04-28T02:13:12.604Z,9.73
2023-04-28T02:14:12.496Z,9.73
2023-04-28T02:15:12.495Z,9.68
2023-04-28T02:16:12.518Z,9.68
2023-04-28T02:17:12.470Z,9.67
2023-04-28T02:18:12.477Z,9.65
2023-04-28T02:19:12.481Z,9.65
2023-04-28T02:20:12.435Z,9.68
2023-04-28T02:21:12.443Z,9.65
2023-04-28T02:22:12.469Z,9.67
2023-04-28T02:23:12.422Z,9.62
2023-04-28T02:24:12.407Z,9.59
2023-04-28T02:25:12.438Z,9.56
2023-04-28T02:26:12.364Z,9.55
2023-04-28T02:27:12.440Z,9.55
2023-04-28T02:28:12.417Z,9.56
2023-04-28T02:29:12.416Z,9.56
2023-04-28T02:30:12.376Z,9.56
2023-04-28T02:31:12.381Z,9.58
2023-04-28T02:32:12.375Z,9.59
2023-04-28T02:33:12.324Z,9.56
2023-04-28T02:34:12.308Z,9.56
2023-04-28T02:35:12.292Z,9.53
2023-04-28T02:36:12.268Z,9.52
2023-04-28T02:37:12.274Z,9.50
2023-04-28T02:38:12.219Z,9.50
2023-04-28T02:39:12.227Z,9.49
2023-04-28T02:40:12.245Z,9.52
2023-04-28T02:41:12.219Z,9.53
2023-04-28T02:42:12.315Z,9.52
2023-04-28T02:43:12.205Z,9.55
2023-04-28T02:44:12.156Z,9.58
2023-04-28T02:45:12.166Z,9.59
2023-04-28T02:46:12.167Z,9.59
2023-04-28T02:47:12.149Z,9.60
2023-04-28T02:48:12.196Z,9.63
2023-04-28T02:49:12.129Z,9.67
2023-04-28T02:50:12.079Z,9.67
2023-04-28T02:51:12.105Z,9.68
2023-04-28T02:52:12.086Z,9.71
2023-04-28T02:53:12.103Z,9.74
2023-04-28T02:54:12.088Z,9.71
2023-04-28T02:55:12.094Z,9.71
2023-04-28T02:56:12.019Z,9.71
2023-04-28T02:57:12.052Z,9.70
2023-04-28T02:58:12.018Z,9.71
2023-04-28T02:59:12.048Z,9.71
2023-04-28T03:00:11.999Z,9.71
2023-04-28T03:01:12.013Z,9.74
2023-04-28T03:02:11.955Z,9.75
2023-04-28T03:03:12.222Z,9.78
2023-04-28T03:04:12.137Z,9.81
2023-04-28T03:05:12.057Z,9.83
2023-04-28T03:06:11.984Z,9.85
2023-04-28T03:07:11.965Z,9.88
2023-04-28T03:08:11.917Z,9.91
2023-04-28T03:09:11.899Z,9.89
2023-04-28T03:10:11.903Z,9.86
2023-04-28T03:11:11.889Z,9.83
2023-04-28T03:12:11.843Z,9.81
2023-04-28T03:13:11.959Z,9.80
2023-04-28T03:14:11.873Z,9.83
2023-04-28T03:15:13.880Z,9.85
2023-04-28T03:16:11.878Z,9.81
2023-04-28T03:17:11.828Z,9.81
2023-04-28T03:18:11.790Z,9.83
2023-04-28T03:19:11.811Z,9.81
2023-04-28T03:20:11.783Z,9.83
2023-04-28T03:21:11.770Z,9.83
2023-04-28T03:22:11.768Z,9.81
2023-04-28T03:23:11.896Z,9.86
2023-04-28T03:24:11.739Z,9.83
2023-04-28T03:25:11.744Z,9.83
2023-04-28T03:26:11.694Z,9.81
2023-04-28T03:27:11.707Z,9.83
2023-04-28T03:28:11.723Z,9.83
2023-04-28T03:29:11.708Z,9.83
2023-04-28T03:30:11.665Z,9.80
2023-04-28T03:31:11.684Z,9.74
2023-04-28T03:32:11.800Z,9.63
2023-04-28T03:33:11.729Z,9.58
2023-04-28T03:34:11.636Z,9.53
2023-04-28T03:35:11.633Z,9.53
2023-04-28T03:36:11.605Z,9.55
2023-04-28T03:37:11.607Z,9.53
2023-04-28T03:38:11.565Z,9.53
2023-04-28T03:39:11.612Z,9.53
2023-04-28T03:40:18.563Z,9.56
2023-04-28T03:41:11.560Z,9.58
2023-04-28T03:42:11.522Z,9.59
2023-04-28T03:43:11.574Z,9.63
2023-04-28T03:44:11.509Z,9.63
2023-04-28T03:45:11.546Z,9.63
2023-04-28T03:46:11.502Z,9.63
2023-04-28T03:47:11.495Z,9.65
2023-04-28T03:48:11.534Z,9.68
2023-04-28T03:49:11.474Z,9.68
2023-04-28T03:50:11.484Z,9.70
2023-04-28T03:51:11.433Z,9.74
2023-04-28T03:52:11.457Z,9.75
2023-04-28T03:53:11.428Z,9.77
2023-04-28T03:54:11.531Z,9.80
2023-04-28T03:55:11.371Z,9.80
2023-04-28T03:56:11.448Z,9.83
2023-04-28T03:57:11.385Z,9.85
2023-04-28T03:58:11.370Z,9.83
2023-04-28T03:59:11.334Z,9.85
2023-04-28T04:00:11.384Z,9.85
2023-04-28T04:01:11.350Z,9.86
2023-04-28T04:02:11.400Z,9.88
2023-04-28T04:03:11.549Z,9.86
2023-04-28T04:04:11.532Z,9.86
2023-04-28T04:05:11.418Z,9.86
2023-04-28T04:06:11.302Z,9.85
2023-04-28T04:07:11.267Z,9.86
2023-04-28T04:08:11.262Z,9.88
2023-04-28T04:09:11.252Z,9.86
2023-04-28T04:10:11.270Z,9.86
2023-04-28T04:11:11.217Z,9.86
2023-04-28T04:12:11.249Z,9.86
2023-04-28T04:13:11.201Z,9.85
2023-04-28T04:14:11.198Z,9.88
2023-04-28T04:15:11.171Z,9.86
2023-04-28T04:16:11.204Z,9.89
2023-04-28T04:17:11.141Z,9.89
2023-04-28T04:18:11.281Z,9.88
2023-04-28T04:19:11.140Z,9.89
2023-04-28T04:20:11.140Z,9.92
2023-04-28T04:21:11.107Z,9.91
2023-04-28T04:22:11.143Z,9.89
2023-04-28T04:23:11.113Z,9.89
2023-04-28T04:24:11.091Z,9.91
2023-04-28T04:25:11.055Z,9.91
2023-04-28T04:26:11.096Z,9.93
2023-04-28T04:27:11.032Z,9.93
2023-04-28T04:28:11.048Z,9.93
2023-04-28T04:29:11.037Z,9.95
2023-04-28T04:30:11.057Z,9.93
2023-04-28T04:31:11.199Z,9.93
2023-04-28T04:32:11.020Z,9.95
2023-04-28T04:33:10.989Z,9.92
2023-04-28T04:34:11.000Z,9.91
2023-04-28T04:35:10.973Z,9.92
2023-04-28T04:36:11.028Z,9.91
2023-04-28T04:37:10.952Z,9.92
2023-04-28T04:38:11.074Z,9.95
2023-04-28T04:39:10.970Z,9.92
2023-04-28T04:40:11.112Z,9.88
2023-04-28T04:41:11.146Z,9.85
2023-04-28T04:42:23.986Z,9.78
2023-04-28T04:43:10.876Z,9.78
2023-04-28T04:44:12.099Z,9.77
2023-04-28T04:45:10.864Z,9.75
2023-04-28T04:46:10.854Z,9.74
2023-04-28T04:47:10.877Z,9.74
2023-04-28T04:48:10.869Z,9.74
2023-04-28T04:49:10.900Z,9.74
2023-04-28T04:50:10.943Z,9.68
2023-04-28T04:51:10.843Z,9.70
2023-04-28T04:52:10.970Z,9.67
2023-04-28T04:53:13.981Z,9.68
2023-04-28T04:54:10.770Z,9.68
2023-04-28T04:55:10.736Z,9.70
2023-04-28T04:56:10.754Z,9.68
2023-04-28T04:57:10.715Z,9.65
2023-04-28T04:58:10.725Z,9.60
2023-04-28T04:59:10.751Z,9.60
2023-04-28T05:00:10.715Z,9.58
2023-04-28T05:01:10.693Z,9.58
2023-04-28T05:02:10.918Z,9.58
2023-04-28T05:03:10.841Z,9.56
2023-04-28T05:04:10.855Z,9.53
2023-04-28T05:05:20.403Z,9.55
2023-04-28T05:06:10.687Z,9.56
2023-04-28T05:07:10.622Z,9.56
2023-04-28T05:08:10.650Z,9.58
2023-04-28T05:09:10.587Z,9.59
2023-04-28T05:10:10.613Z,9.62
2023-04-28T05:11:10.612Z,9.63
2023-04-28T05:12:10.602Z,9.62
2023-04-28T05:13:10.574Z,9.63
2023-04-28T05:14:10.575Z,9.62
2023-04-28T05:15:10.534Z,9.62
2023-04-28T05:16:10.700Z,9.60
2023-04-28T05:17:10.533Z,9.60
2023-04-28T05:18:10.619Z,9.60
2023-04-28T05:19:10.512Z,9.60
2023-04-28T05:20:12.665Z,9.62
2023-04-28T05:21:10.489Z,9.63
2023-04-28T05:22:10.505Z,9.65
2023-04-28T05:23:10.496Z,9.63
2023-04-28T05:24:10.468Z,9.67
2023-04-28T05:25:10.424Z,9.67
2023-04-28T05:26:10.446Z,9.68
2023-04-28T05:27:10.416Z,9.68
2023-04-28T05:28:10.448Z,9.70
2023-04-28T05:29:10.371Z,9.71
2023-04-28T05:30:10.646Z,9.67
2023-04-28T05:31:10.347Z,9.65
2023-04-28T05:32:10.440Z,9.65
2023-04-28T05:33:10.382Z,9.65
2023-04-28T05:34:10.353Z,9.63
2023-04-28T05:35:10.357Z,9.62
2023-04-28T05:36:10.335Z,9.58
2023-04-28T05:37:10.274Z,9.58
2023-04-28T05:38:10.301Z,9.58
2023-04-28T05:39:10.290Z,9.59
2023-04-28T05:40:10.256Z,9.59
2023-04-28T05:41:10.267Z,9.58
2023-04-28T05:42:10.273Z,9.59
2023-04-28T05:43:10.220Z,9.58
2023-04-28T05:44:10.249Z,9.59
2023-04-28T05:45:10.246Z,9.62
2023-04-28T05:46:28.328Z,9.63
2023-04-28T05:47:10.158Z,9.63
2023-04-28T05:48:10.296Z,9.65
2023-04-28T05:49:10.187Z,9.65
2023-04-28T05:50:10.199Z,9.68
2023-04-28T05:51:10.143Z,9.68
2023-04-28T05:52:10.170Z,9.71
2023-04-28T05:53:10.197Z,9.73
2023-04-28T05:54:10.134Z,9.73
2023-04-28T05:55:10.088Z,9.77
2023-04-28T05:56:10.129Z,9.77
2023-04-28T05:57:10.066Z,9.77
2023-04-28T05:58:10.095Z,9.77
2023-04-28T05:59:10.061Z,9.77
2023-04-28T06:00:10.064Z,9.78
2023-04-28T06:01:10.055Z,9.81
2023-04-28T06:02:10.069Z,9.83
2023-04-28T06:03:10.184Z,9.85
2023-04-28T06:04:10.268Z,9.86
2023-04-28T06:05:10.202Z,9.88
2023-04-28T06:06:10.417Z,9.88
2023-04-28T06:07:09.978Z,9.89
2023-04-28T06:08:09.984Z,9.91
2023-04-28T06:09:09.978Z,9.91
2023-04-28T06:10:09.943Z,9.89
2023-04-28T06:11:09.925Z,9.91
2023-04-28T06:12:10.006Z,9.89
2023-04-28T06:13:09.888Z,9.89
2023-04-28T06:14:09.920Z,9.88
2023-04-28T06:15:09.884Z,9.88
2023-04-28T06:16:09.899Z,9.88
2023-04-28T06:17:09.843Z,9.89
2023-04-28T06:18:09.975Z,9.95
2023-04-28T06:19:09.830Z,9.98
2023-04-28T06:20:09.889Z,9.99
2023-04-28T06:21:09.794Z,10.01
2023-04-28T06:22:09.820Z,10.06
2023-04-28T06:23:09.792Z,10.06
2023-04-28T06:24:09.786Z,10.10
2023-04-28T06:25:09.755Z,10.09
2023-04-28T06:26:09.774Z,10.10
2023-04-28T06:27:09.750Z,10.10
2023-04-28T06:28:09.780Z,10.13
2023-04-28T06:29:09.702Z,10.17
2023-04-28T06:30:09.744Z,10.20
2023-04-28T06:31:09.741Z,10.20
2023-04-28T06:32:09.730Z,10.25
2023-04-28T06:33:09.680Z,10.26
2023-04-28T06:34:09.730Z,10.29
2023-04-28T06:35:09.671Z,10.34
2023-04-28T06:36:09.674Z,10.39
2023-04-28T06:37:09.631Z,10.43
2023-04-28T06:38:09.675Z,10.46
2023-04-28T06:39:09.639Z,10.51
2023-04-28T06:40:09.629Z,10.54
2023-04-28T06:41:09.594Z,10.55
2023-04-28T06:42:09.634Z,10.55
2023-04-28T06:43:09.586Z,10.57
2023-04-28T06:44:09.685Z,10.58
2023-04-28T06:45:09.569Z,10.52
2023-04-28T06:46:11.146Z,10.52
2023-04-28T06:47:09.711Z,10.52
2023-04-28T06:48:09.654Z,10.55
2023-04-28T06:49:09.543Z,10.55
2023-04-28T06:50:09.574Z,10.54
2023-04-28T06:51:09.716Z,10.57
2023-04-28T06:52:09.527Z,10.60
2023-04-28T06:53:09.556Z,10.63
2023-04-28T06:54:09.533Z,10.68
2023-04-28T06:55:09.520Z,10.70
2023-04-28T06:56:11.427Z,10.75
2023-04-28T06:57:09.459Z,10.78
2023-04-28T06:58:10.775Z,10.81
2023-04-28T06:59:10.469Z,10.80
2023-04-28T07:00:09.460Z,10.75
2023-04-28T07:01:09.480Z,10.68
2023-04-28T07:02:09.487Z,10.63
2023-04-28T07:03:09.601Z,10.60
2023-04-28T07:04:09.643Z,10.55
2023-04-28T07:05:09.409Z,10.54
2023-04-28T07:06:09.528Z,10.51
2023-04-28T07:07:09.375Z,10.54
2023-04-28T07:08:09.405Z,10.57
2023-04-28T07:09:10.317Z,10.63
2023-04-28T07:10:09.322Z,10.68
2023-04-28T07:11:09.344Z,10.73
2023-04-28T07:12:09.291Z,10.80
2023-04-28T07:13:09.346Z,10.84
2023-04-28T07:14:09.374Z,10.90
2023-04-28T07:15:10.303Z,10.93
2023-04-28T07:16:09.277Z,10.94
2023-04-28T07:17:09.209Z,10.98
2023-04-28T07:18:09.262Z,11.01
2023-04-28T07:19:09.190Z,11.01
2023-04-28T07:20:09.186Z,11.06
2023-04-28T07:21:09.184Z,11.08
2023-04-28T07:22:09.208Z,11.13
2023-04-28T07:23:09.159Z,11.21
2023-04-28T07:24:09.168Z,11.33
2023-04-28T07:25:09.156Z,11.46
2023-04-28T07:26:09.198Z,11.84
2023-04-28T07:27:09.133Z,12.19
2023-04-28T07:28:09.124Z,12.40
2023-04-28T07:29:09.101Z,12.46
2023-04-28T07:30:25.010Z,12.38
2023-04-28T07:31:09.087Z,12.29
2023-04-28T07:32:09.234Z,12.18
2023-04-28T07:33:09.155Z,12.12
2023-04-28T07:34:09.074Z,12.07
2023-04-28T07:35:09.062Z,12.01
2023-04-28T07:36:17.093Z,12.00
2023-04-28T07:37:22.392Z,12.03
2023-04-28T07:38:09.038Z,12.07
2023-04-28T07:39:10.217Z,12.07
2023-04-28T07:40:10.019Z,12.07
2023-04-28T07:41:11.054Z,12.07
2023-04-28T07:42:09.769Z,12.05
2023-04-28T07:43:09.013Z,12.04
2023-04-28T07:44:18.382Z,12.07
2023-04-28T07:45:09.675Z,12.11
2023-04-28T07:46:09.028Z,12.15
2023-04-28T07:47:08.923Z,12.19
2023-04-28T07:48:09.009Z,12.26
2023-04-28T07:49:08.865Z,12.30
2023-04-28T07:50:08.897Z,12.40
2023-04-28T07:51:08.890Z,12.46
2023-04-28T07:52:08.890Z,12.55
2023-04-28T07:53:08.820Z,12.61
2023-04-28T07:54:08.836Z,12.66
2023-04-28T07:55:08.822Z,12.70
2023-04-28T07:56:08.836Z,12.84
2023-04-28T07:57:08.818Z,12.87
2023-04-28T07:58:08.796Z,12.87
2023-04-28T07:59:08.803Z,12.99
2023-04-28T08:00:09.507Z,13.28
2023-04-28T08:01:10.245Z,13.44
2023-04-28T08:02:08.823Z,13.57
2023-04-28T08:03:08.893Z,13.76
2023-04-28T08:04:09.002Z,13.79
2023-04-28T08:05:08.989Z,13.69
2023-04-28T08:06:08.918Z,13.65
2023-04-28T08:07:08.691Z,13.61
2023-04-28T08:08:08.700Z,13.55
2023-04-28T08:09:08.645Z,13.53
2023-04-28T08:10:08.614Z,13.53
2023-04-28T08:11:08.710Z,13.55
2023-04-28T08:12:08.599Z,13.57
2023-04-28T08:13:08.626Z,13.61
2023-04-28T08:14:08.595Z,13.69
2023-04-28T08:15:08.614Z,13.84
2023-04-28T08:16:08.584Z,13.90
2023-04-28T08:17:08.596Z,13.93
2023-04-28T08:18:08.661Z,13.96
2023-04-28T08:19:08.636Z,13.99
2023-04-28T08:20:08.494Z,14.01
2023-04-28T08:21:08.541Z,13.96
2023-04-28T08:22:08.502Z,13.88
2023-04-28T08:23:08.496Z,13.87
2023-04-28T08:24:08.467Z,13.84
2023-04-28T08:25:08.502Z,13.86
2023-04-28T08:26:08.438Z,13.91
2023-04-28T08:27:08.482Z,13.79
2023-04-28T08:28:08.452Z,13.81
2023-04-28T08:29:08.461Z,13.73
2023-04-28T08:30:08.414Z,13.68
2023-04-28T08:31:08.471Z,13.68
2023-04-28T08:32:08.396Z,13.75
2023-04-28T08:33:08.421Z,13.76
2023-04-28T08:34:08.350Z,13.83
2023-04-28T08:35:08.374Z,13.86
2023-04-28T08:36:08.347Z,13.88
2023-04-28T08:37:08.367Z,13.93
2023-04-28T08:38:08.291Z,13.93
2023-04-28T08:39:08.336Z,13.90
2023-04-28T08:40:08.297Z,13.84
2023-04-28T08:41:08.299Z,13.83
2023-04-28T08:42:08.313Z,13.86
2023-04-28T08:43:08.280Z,13.88
2023-04-28T08:44:08.253Z,13.87
2023-04-28T08:45:08.261Z,13.86
2023-04-28T08:46:08.404Z,13.84
2023-04-28T08:47:08.241Z,13.84
2023-04-28T08:48:08.249Z,13.88
2023-04-28T08:49:08.206Z,13.91
2023-04-28T08:50:08.175Z,13.96
2023-04-28T08:51:08.177Z,14.02
2023-04-28T08:52:08.229Z,14.09
2023-04-28T08:53:08.167Z,14.27
2023-04-28T08:55:08.200Z,14.49
2023-04-28T08:56:08.113Z,14.49
2023-04-28T08:57:08.157Z,14.48
2023-04-28T08:58:08.115Z,14.41
2023-04-28T08:59:08.086Z,14.35
2023-04-28T09:00:08.055Z,14.30
2023-04-28T09:01:08.100Z,14.38
2023-04-28T09:02:08.067Z,14.44
2023-04-28T09:03:08.264Z,14.45
2023-04-28T09:04:08.178Z,14.42
2023-04-28T09:05:08.341Z,14.44
2023-04-28T09:06:07.997Z,14.46
2023-04-28T09:07:08.032Z,14.54
2023-04-28T09:08:08.039Z,14.57
2023-04-28T09:09:08.036Z,14.69
2023-04-28T09:10:07.953Z,14.66
2023-04-28T09:11:07.996Z,14.64
2023-04-28T09:12:07.959Z,14.66
2023-04-28T09:13:07.972Z,14.59
2023-04-28T09:14:07.911Z,14.72
2023-04-28T09:15:07.918Z,14.80
2023-04-28T09:16:07.929Z,14.87
2023-04-28T09:17:07.909Z,14.85
2023-04-28T09:18:08.096Z,14.93
2023-04-28T09:19:07.883Z,15.04
2023-04-28T09:20:07.853Z,15.11
2023-04-28T09:21:07.864Z,15.13
2023-04-28T09:22:24.920Z,15.13
2023-04-28T09:23:07.858Z,15.18
2023-04-28T09:24:07.810Z,15.22
2023-04-28T09:25:07.828Z,15.23
2023-04-28T09:26:07.890Z,15.22
2023-04-28T09:27:07.794Z,15.04
2023-04-28T09:28:07.787Z,14.98
2023-04-28T09:29:07.815Z,15.04
2023-04-28T09:30:07.750Z,15.04
2023-04-28T09:31:07.761Z,15.05
2023-04-28T09:32:07.760Z,15.09
2023-04-28T09:33:08.782Z,15.13
2023-04-28T09:34:07.780Z,15.12
2023-04-28T09:35:07.766Z,15.15
2023-04-28T09:36:07.669Z,15.25
2023-04-28T09:37:07.717Z,15.35
2023-04-28T09:38:07.718Z,15.49
2023-04-28T09:39:07.706Z,15.64
2023-04-28T09:40:07.668Z,15.77
2023-04-28T09:41:15.201Z,15.84
2023-04-28T09:42:07.587Z,15.88
2023-04-28T09:43:20.981Z,15.95
2023-04-28T09:44:07.588Z,15.96
2023-04-28T09:45:07.610Z,15.86
2023-04-28T09:46:07.573Z,15.91
2023-04-28T09:47:07.562Z,15.95
2023-04-28T09:48:07.615Z,15.95
2023-04-28T09:49:07.536Z,15.96
2023-04-28T09:50:07.510Z,15.88
2023-04-28T09:51:07.525Z,15.80
2023-04-28T09:52:07.481Z,15.77
2023-04-28T09:53:07.529Z,15.80
2023-04-28T09:54:07.460Z,15.74
2023-04-28T09:55:07.478Z,15.80
2023-04-28T09:56:07.447Z,15.91
2023-04-28T09:57:07.767Z,15.89
2023-04-28T09:58:07.443Z,15.86
2023-04-28T09:59:07.428Z,15.85
2023-04-28T10:00:07.401Z,15.81
2023-04-28T10:01:07.490Z,15.88
2023-04-28T10:02:22.482Z,16.08
2023-04-28T10:03:07.485Z,16.06
2023-04-28T10:04:07.625Z,16.10
2023-04-28T10:05:07.615Z,16.17
2023-04-28T10:06:07.335Z,16.22
2023-04-28T10:07:07.338Z,16.30
2023-04-28T10:08:07.309Z,16.17
2023-04-28T10:09:07.350Z,16.26
2023-04-28T10:10:07.290Z,16.33
2023-04-28T10:11:07.304Z,16.32
2023-04-28T10:12:07.269Z,16.23
2023-04-28T10:13:07.300Z,16.32
2023-04-28T10:14:07.273Z,16.32
2023-04-28T10:15:07.254Z,16.14
2023-04-28T10:16:07.275Z,16.14
2023-04-28T10:17:07.238Z,16.16
2023-04-28T10:18:07.209Z,16.13
2023-04-28T10:19:07.246Z,16.06
2023-04-28T10:20:07.187Z,16.06
2023-04-28T10:21:07.201Z,16.11
2023-04-28T10:22:07.158Z,16.07
2023-04-28T10:23:07.170Z,16.23
2023-04-28T10:24:07.192Z,16.45
2023-04-28T10:25:07.167Z,16.69
2023-04-28T10:26:07.126Z,16.65
2023-04-28T10:27:07.130Z,16.57
2023-04-28T10:28:07.102Z,16.57
2023-04-28T10:29:07.132Z,16.55
2023-04-28T10:30:15.847Z,16.67
2023-04-28T10:31:07.136Z,16.78
2023-04-28T10:32:07.052Z,16.85
2023-04-28T10:33:07.129Z,16.92
2023-04-28T10:34:07.078Z,17.05
2023-04-28T10:35:07.042Z,17.00
2023-04-28T10:36:07.005Z,16.95
2023-04-28T10:37:07.026Z,16.95
2023-04-28T10:38:07.032Z,17.06
2023-04-28T10:39:07.055Z,17.09
2023-04-28T10:40:08.330Z,17.10
2023-04-28T10:41:06.989Z,17.25
2023-04-28T10:42:06.947Z,17.33
2023-04-28T10:43:06.958Z,17.46
2023-04-28T10:44:06.947Z,17.57
2023-04-28T10:45:06.955Z,17.70
2023-04-28T10:46:06.985Z,17.71
2023-04-28T10:47:06.998Z,17.66
2023-04-28T10:48:06.943Z,17.68
2023-04-28T10:49:06.918Z,17.73
2023-04-28T10:50:06.908Z,17.80
2023-04-28T10:51:06.885Z,17.80
2023-04-28T10:52:06.849Z,17.80
2023-04-28T10:53:06.868Z,18.01
2023-04-28T10:54:06.825Z,18.17
2023-04-28T10:55:19.288Z,18.25
2023-04-28T10:56:06.828Z,18.29
2023-04-28T10:57:06.819Z,18.19
2023-04-28T10:58:06.807Z,18.02
2023-04-28T10:59:06.819Z,18.11
2023-04-28T11:00:06.792Z,18.35
2023-04-28T11:01:06.847Z,18.54
2023-04-28T11:02:06.799Z,18.71
2023-04-28T11:03:06.928Z,18.75
2023-04-28T11:04:06.879Z,18.84
2023-04-28T11:05:06.848Z,18.89
2023-04-28T11:06:06.742Z,18.84
2023-04-28T11:07:06.726Z,18.72
2023-04-28T11:08:06.681Z,18.78
2023-04-28T11:09:06.706Z,18.82
2023-04-28T11:10:06.676Z,18.76
2023-04-28T11:11:06.717Z,18.72
2023-04-28T11:12:06.662Z,18.87
2023-04-28T11:13:06.655Z,19.09
2023-04-28T11:14:06.602Z,19.27
2023-04-28T11:15:06.709Z,19.24
2023-04-28T11:16:06.620Z,19.34
2023-04-28T11:17:06.647Z,19.25
2023-04-28T11:18:06.644Z,19.25
2023-04-28T11:19:06.572Z,19.30
2023-04-28T11:20:06.572Z,19.30
2023-04-28T11:21:06.548Z,19.30
2023-04-28T11:22:06.551Z,19.23
2023-04-28T11:23:06.540Z,19.24
2023-04-28T11:24:06.510Z,19.30
2023-04-28T11:25:06.524Z,19.20
2023-04-28T11:26:06.469Z,19.17
2023-04-28T11:27:06.534Z,19.06
2023-04-28T11:28:06.449Z,18.96
2023-04-28T11:29:06.463Z,19.01
2023-04-28T11:30:06.430Z,19.05
2023-04-28T11:31:06.462Z,19.09
2023-04-28T11:32:06.561Z,19.10
2023-04-28T11:33:06.490Z,18.96
2023-04-28T11:34:06.415Z,18.99
2023-04-28T11:35:06.426Z,18.96
2023-04-28T11:36:06.378Z,18.99
2023-04-28T11:37:06.374Z,18.93
2023-04-28T11:38:06.390Z,18.83
2023-04-28T11:39:06.401Z,18.79
2023-04-28T11:40:06.356Z,18.97
2023-04-28T11:41:06.336Z,19.16
2023-04-28T11:42:06.327Z,19.25
2023-04-28T11:43:06.345Z,19.39
2023-04-28T11:44:06.285Z,19.46
2023-04-28T11:45:06.334Z,19.47
2023-04-28T11:46:06.330Z,19.55
2023-04-28T11:47:06.579Z,19.71
2023-04-28T11:48:06.355Z,19.79
2023-04-28T11:49:06.272Z,19.86
2023-04-28T11:50:06.253Z,19.92
2023-04-28T11:51:06.231Z,20.05
2023-04-28T11:52:06.230Z,20.07
2023-04-28T11:53:06.215Z,20.01
2023-04-28T11:54:06.241Z,19.90
2023-04-28T11:55:06.209Z,20.01
2023-04-28T11:56:06.189Z,20.16
2023-04-28T11:57:06.236Z,20.19
2023-04-28T11:58:06.169Z,20.30
2023-04-28T11:59:06.190Z,20.31
2023-04-28T12:00:06.128Z,20.40
2023-04-28T12:01:06.149Z,20.23
2023-04-28T12:02:06.183Z,20.12
2023-04-28T12:03:06.243Z,20.00
2023-04-28T12:04:06.181Z,19.86
2023-04-28T12:05:06.190Z,19.65
2023-04-28T12:06:06.052Z,19.60
2023-04-28T12:07:06.142Z,19.43
2023-04-28T12:08:06.043Z,19.53
2023-04-28T12:09:06.067Z,19.58
2023-04-28T12:10:06.007Z,19.65
2023-04-28T12:11:06.048Z,19.72
2023-04-28T12:12:06.022Z,20.02
2023-04-28T12:13:05.989Z,20.10
2023-04-28T12:14:06.001Z,20.07
2023-04-28T12:15:05.979Z,19.92
2023-04-28T12:16:06.007Z,20.12
2023-04-28T12:17:06.012Z,20.25
2023-04-28T12:18:05.997Z,20.44
2023-04-28T12:19:05.913Z,20.57
2023-04-28T12:20:05.936Z,20.71
2023-04-28T12:21:05.884Z,20.91
2023-04-28T12:22:05.909Z,21.00
2023-04-28T12:23:05.885Z,21.01
2023-04-28T12:24:05.864Z,21.06
2023-04-28T12:25:05.885Z,20.97
2023-04-28T12:26:05.849Z,21.03
2023-04-28T12:27:05.811Z,21.06
2023-04-28T12:28:05.826Z,21.09
2023-04-28T12:29:05.798Z,21.16
2023-04-28T12:30:05.831Z,21.12
2023-04-28T12:31:05.795Z,21.06
2023-04-28T12:32:05.790Z,21.06
2023-04-28T12:33:05.891Z,21.18
2023-04-28T12:34:05.751Z,21.22
2023-04-28T12:35:05.758Z,21.19
2023-04-28T12:36:05.735Z,21.16
2023-04-28T12:37:05.777Z,21.12
2023-04-28T12:38:05.719Z,21.06
2023-04-28T12:39:05.682Z,21.09
2023-04-28T12:40:05.687Z,21.12
2023-04-28T12:41:05.685Z,21.21
2023-04-28T12:42:05.672Z,21.28
2023-04-28T12:43:05.647Z,21.24
2023-04-28T12:44:05.646Z,21.21
2023-04-28T12:45:05.605Z,21.03
2023-04-28T12:46:05.654Z,20.96
2023-04-28T12:47:05.596Z,20.87
2023-04-28T12:48:05.660Z,20.68
2023-04-28T12:49:05.563Z,20.63
2023-04-28T12:50:05.603Z,20.56
2023-04-28T12:51:05.566Z,20.46
2023-04-28T12:52:05.575Z,20.44
2023-04-28T12:53:05.526Z,20.48
2023-04-28T12:54:05.699Z,20.46
2023-04-28T12:55:05.507Z,20.35
2023-04-28T12:56:05.512Z,20.17
2023-04-28T12:57:05.503Z,20.02
2023-04-28T12:58:05.511Z,19.89
2023-04-28T12:59:05.468Z,19.82
2023-04-28T13:00:05.508Z,19.76
2023-04-28T13:01:05.440Z,19.65
2023-04-28T13:02:05.557Z,19.53
2023-04-28T13:03:05.522Z,19.49